sensor_id;sensor_type;location;lat;lon;timestamp;pressure;altitude;pressure_sealevel;temperature;humidity
76603;BME280;65075;48.390;17.598;2022-12-18T00:01:41;101203.44;;;-2.65;74.94
76603;BME280;65075;48.390;17.598;2022-12-18T00:04:21;101201.09;;;-2.78;76.75
76603;BME280;65075;48.390;17.598;2022-12-18T00:06:47;101215.69;;;-2.72;75.21
76603;BME280;65075;48.390;17.598;2022-12-18T00:09:12;101201.06;;;-2.68;75.20
76603;BME280;65075;48.390;17.598;2022-12-18T00:11:38;101217.63;;;-2.55;76.82
76603;BME280;65075;48.390;17.598;2022-12-18T00:14:04;101222.78;;;-2.07;74.64
76603;BME280;65075;48.390;17.598;2022-12-18T00:16:29;101216.38;;;-2.24;73.59
76603;BME280;65075;48.390;17.598;2022-12-18T00:18:59;101237.78;;;-2.24;74.62
76603;BME280;65075;48.390;17.598;2022-12-18T00:21:27;101241.47;;;-2.35;74.57
76603;BME280;65075;48.390;17.598;2022-12-18T00:23:55;101235.56;;;-2.38;75.18
76603;BME280;65075;48.390;17.598;2022-12-18T00:26:24;101232.84;;;-2.75;76.66
76603;BME280;65075;48.390;17.598;2022-12-18T00:28:50;101246.53;;;-2.32;74.70
76603;BME280;65075;48.390;17.598;2022-12-18T00:31:19;101230.66;;;-1.16;70.55
76603;BME280;65075;48.390;17.598;2022-12-18T00:33:46;101236.28;;;-1.72;71.93
76603;BME280;65075;48.390;17.598;2022-12-18T00:36:21;101248.97;;;-1.56;72.60
76603;BME280;65075;48.390;17.598;2022-12-18T00:38:47;101249.94;;;-0.95;71.11
76603;BME280;65075;48.390;17.598;2022-12-18T00:41:15;101259.28;;;-0.99;70.60
76603;BME280;65075;48.390;17.598;2022-12-18T00:44:06;101249.25;;;-2.14;74.49
76603;BME280;65075;48.390;17.598;2022-12-18T00:46:32;101253.59;;;-1.31;71.93
76603;BME280;65075;48.390;17.598;2022-12-18T00:48:58;101248.22;;;-0.61;71.41
76603;BME280;65075;48.390;17.598;2022-12-18T00:51:24;101248.66;;;-1.26;70.30
76603;BME280;65075;48.390;17.598;2022-12-18T00:53:50;101250.09;;;-2.04;74.69
76603;BME280;65075;48.390;17.598;2022-12-18T00:56:16;101252.94;;;-2.15;75.27
76603;BME280;65075;48.390;17.598;2022-12-18T00:58:44;101251.88;;;-2.32;76.34
76603;BME280;65075;48.390;17.598;2022-12-18T01:01:10;101255.72;;;-2.07;75.24
76603;BME280;65075;48.390;17.598;2022-12-18T01:03:35;101263.84;;;-1.99;74.20
76603;BME280;65075;48.390;17.598;2022-12-18T01:06:09;101253.13;;;-1.89;73.53
76603;BME280;65075;48.390;17.598;2022-12-18T01:08:38;101258.66;;;-2.00;73.19
76603;BME280;65075;48.390;17.598;2022-12-18T01:11:08;101238.91;;;-1.90;74.30
76603;BME280;65075;48.390;17.598;2022-12-18T01:13:37;101266.63;;;-1.91;73.80
76603;BME280;65075;48.390;17.598;2022-12-18T01:16:03;101257.28;;;-1.77;73.66
76603;BME280;65075;48.390;17.598;2022-12-18T01:18:28;101266.97;;;-1.49;71.63
76603;BME280;65075;48.390;17.598;2022-12-18T01:20:54;101248.75;;;-1.45;70.50
76603;BME280;65075;48.390;17.598;2022-12-18T01:23:19;101263.38;;;-2.21;74.15
76603;BME280;65075;48.390;17.598;2022-12-18T01:25:45;101261.72;;;-2.32;75.63
76603;BME280;65075;48.390;17.598;2022-12-18T01:28:14;101258.13;;;-1.32;72.45
76603;BME280;65075;48.390;17.598;2022-12-18T01:30:39;101255.22;;;-1.38;70.38
76603;BME280;65075;48.390;17.598;2022-12-18T01:33:05;101268.41;;;-2.09;72.14
76603;BME280;65075;48.390;17.598;2022-12-18T01:35:31;101272.25;;;-2.31;75.23
76603;BME280;65075;48.390;17.598;2022-12-18T01:37:57;101260.19;;;-2.35;74.81
76603;BME280;65075;48.390;17.598;2022-12-18T01:40:23;101268.19;;;-2.35;74.46
76603;BME280;65075;48.390;17.598;2022-12-18T01:42:52;101285.41;;;-1.73;73.57
76603;BME280;65075;48.390;17.598;2022-12-18T01:47:47;101280.25;;;-2.21;74.08
76603;BME280;65075;48.390;17.598;2022-12-18T01:53:05;101279.03;;;-2.36;75.13
76603;BME280;65075;48.390;17.598;2022-12-18T01:55:37;101287.25;;;-2.10;74.09
76603;BME280;65075;48.390;17.598;2022-12-18T01:58:05;101290.72;;;-2.37;73.87
76603;BME280;65075;48.390;17.598;2022-12-18T02:00:33;101291.00;;;-2.40;74.78
76603;BME280;65075;48.390;17.598;2022-12-18T02:03:03;101284.88;;;-2.13;73.98
76603;BME280;65075;48.390;17.598;2022-12-18T02:08:21;101309.66;;;-2.31;74.44
76603;BME280;65075;48.390;17.598;2022-12-18T02:11:07;101312.56;;;-2.05;73.75
76603;BME280;65075;48.390;17.598;2022-12-18T02:16:51;101303.78;;;-2.34;74.40
76603;BME280;65075;48.390;17.598;2022-12-18T02:22:47;101315.97;;;-2.12;74.85
76603;BME280;65075;48.390;17.598;2022-12-18T02:28:13;101312.94;;;-2.46;75.31
76603;BME280;65075;48.390;17.598;2022-12-18T02:30:44;101310.72;;;-2.60;76.78
76603;BME280;65075;48.390;17.598;2022-12-18T02:33:13;101307.91;;;-2.49;75.77
76603;BME280;65075;48.390;17.598;2022-12-18T02:35:41;101302.03;;;-1.79;74.10
76603;BME280;65075;48.390;17.598;2022-12-18T02:38:09;101302.41;;;-2.01;73.05
76603;BME280;65075;48.390;17.598;2022-12-18T02:40:36;101291.00;;;-2.40;75.06
76603;BME280;65075;48.390;17.598;2022-12-18T02:43:12;101302.91;;;-2.25;74.00
76603;BME280;65075;48.390;17.598;2022-12-18T02:45:52;101306.34;;;-1.96;74.11
76603;BME280;65075;48.390;17.598;2022-12-18T02:48:30;101308.56;;;-1.37;71.14
76603;BME280;65075;48.390;17.598;2022-12-18T02:51:21;101305.16;;;-1.56;72.10
76603;BME280;65075;48.390;17.598;2022-12-18T02:54:10;101319.03;;;-1.70;73.31
76603;BME280;65075;48.390;17.598;2022-12-18T02:56:46;101326.31;;;-2.00;73.03
76603;BME280;65075;48.390;17.598;2022-12-18T02:59:19;101334.00;;;-2.14;74.82
76603;BME280;65075;48.390;17.598;2022-12-18T03:07:55;101333.22;;;-2.82;75.37
76603;BME280;65075;48.390;17.598;2022-12-18T03:10:28;101330.25;;;-2.79;75.92
76603;BME280;65075;48.390;17.598;2022-12-18T03:13:06;101345.72;;;-2.54;76.37
76603;BME280;65075;48.390;17.598;2022-12-18T03:15:45;101336.59;;;-2.90;75.90
76603;BME280;65075;48.390;17.598;2022-12-18T03:18:17;101355.25;;;-2.99;77.27
76603;BME280;65075;48.390;17.598;2022-12-18T03:20:47;101344.72;;;-3.10;77.04
76603;BME280;65075;48.390;17.598;2022-12-18T03:23:22;101354.31;;;-2.88;76.42
76603;BME280;65075;48.390;17.598;2022-12-18T03:25:54;101359.34;;;-2.95;75.77
76603;BME280;65075;48.390;17.598;2022-12-18T03:28:23;101372.03;;;-2.68;76.43
76603;BME280;65075;48.390;17.598;2022-12-18T03:30:57;101372.88;;;-2.58;74.88
76603;BME280;65075;48.390;17.598;2022-12-18T03:33:29;101365.53;;;-2.47;73.96
76603;BME280;65075;48.390;17.598;2022-12-18T03:35:57;101366.09;;;-2.53;76.26
76603;BME280;65075;48.390;17.598;2022-12-18T03:38:23;101357.25;;;-2.72;76.04
76603;BME280;65075;48.390;17.598;2022-12-18T03:41:16;101348.38;;;-2.82;76.56
76603;BME280;65075;48.390;17.598;2022-12-18T03:46:54;101362.47;;;-2.80;77.30
76603;BME280;65075;48.390;17.598;2022-12-18T03:49:30;101364.97;;;-2.79;77.50
76603;BME280;65075;48.390;17.598;2022-12-18T03:52:13;101373.59;;;-1.81;73.64
76603;BME280;65075;48.390;17.598;2022-12-18T03:54:45;101380.47;;;-2.35;73.86
76603;BME280;65075;48.390;17.598;2022-12-18T03:57:18;101381.00;;;-2.12;72.27
76603;BME280;65075;48.390;17.598;2022-12-18T03:59:47;101383.81;;;-1.67;69.23
76603;BME280;65075;48.390;17.598;2022-12-18T04:02:17;101380.81;;;-2.01;71.19
76603;BME280;65075;48.390;17.598;2022-12-18T04:04:45;101389.03;;;-2.50;71.91
76603;BME280;65075;48.390;17.598;2022-12-18T04:07:13;101374.78;;;-2.03;71.90
76603;BME280;65075;48.390;17.598;2022-12-18T04:09:41;101397.69;;;-1.54;70.05
76603;BME280;65075;48.390;17.598;2022-12-18T04:12:12;101396.53;;;-1.88;69.31
76603;BME280;65075;48.390;17.598;2022-12-18T04:14:37;101399.47;;;-1.82;70.56
76603;BME280;65075;48.390;17.598;2022-12-18T04:17:03;101391.69;;;-2.69;72.12
76603;BME280;65075;48.390;17.598;2022-12-18T04:19:29;101404.66;;;-2.55;72.68
76603;BME280;65075;48.390;17.598;2022-12-18T04:21:54;101408.47;;;-1.36;68.79
76603;BME280;65075;48.390;17.598;2022-12-18T04:24:20;101404.06;;;-2.30;70.00
76603;BME280;65075;48.390;17.598;2022-12-18T04:26:46;101410.13;;;-2.66;72.25
76603;BME280;65075;48.390;17.598;2022-12-18T04:29:11;101419.78;;;-2.84;72.08
76603;BME280;65075;48.390;17.598;2022-12-18T04:31:37;101422.38;;;-2.35;72.19
76603;BME280;65075;48.390;17.598;2022-12-18T04:34:03;101426.03;;;-2.46;71.58
76603;BME280;65075;48.390;17.598;2022-12-18T04:36:28;101425.47;;;-2.30;71.82
76603;BME280;65075;48.390;17.598;2022-12-18T04:38:54;101421.78;;;-2.10;70.83
76603;BME280;65075;48.390;17.598;2022-12-18T04:41:20;101428.25;;;-2.70;73.22
76603;BME280;65075;48.390;17.598;2022-12-18T04:43:48;101431.75;;;-2.79;72.43
76603;BME280;65075;48.390;17.598;2022-12-18T04:46:13;101423.91;;;-2.61;71.51
76603;BME280;65075;48.390;17.598;2022-12-18T04:48:39;101428.78;;;-2.95;72.24
76603;BME280;65075;48.390;17.598;2022-12-18T04:51:05;101434.75;;;-2.34;71.92
76603;BME280;65075;48.390;17.598;2022-12-18T04:53:31;101433.59;;;-2.70;72.25
76603;BME280;65075;48.390;17.598;2022-12-18T04:56:05;101435.03;;;-2.08;69.60
76603;BME280;65075;48.390;17.598;2022-12-18T04:58:31;101434.88;;;-2.16;70.74
76603;BME280;65075;48.390;17.598;2022-12-18T05:00:57;101436.84;;;-2.28;69.61
76603;BME280;65075;48.390;17.598;2022-12-18T05:03:23;101432.13;;;-1.68;69.10
76603;BME280;65075;48.390;17.598;2022-12-18T05:05:51;101423.78;;;-1.65;68.05
76603;BME280;65075;48.390;17.598;2022-12-18T05:08:17;101447.09;;;-1.95;70.97
76603;BME280;65075;48.390;17.598;2022-12-18T05:10:43;101439.81;;;-2.21;70.49
76603;BME280;65075;48.390;17.598;2022-12-18T05:13:09;101443.59;;;-2.05;70.70
76603;BME280;65075;48.390;17.598;2022-12-18T05:15:34;101439.94;;;-2.04;70.71
76603;BME280;65075;48.390;17.598;2022-12-18T05:18:01;101443.97;;;-1.81;68.64
76603;BME280;65075;48.390;17.598;2022-12-18T05:20:28;101438.94;;;-2.22;70.46
76603;BME280;65075;48.390;17.598;2022-12-18T05:22:54;101446.81;;;-1.92;68.99
76603;BME280;65075;48.390;17.598;2022-12-18T05:25:20;101447.00;;;-1.47;69.05
76603;BME280;65075;48.390;17.598;2022-12-18T05:27:48;101445.66;;;-1.80;69.92
76603;BME280;65075;48.390;17.598;2022-12-18T05:30:15;101450.63;;;-2.04;69.31
76603;BME280;65075;48.390;17.598;2022-12-18T05:32:42;101444.16;;;-2.11;70.81
76603;BME280;65075;48.390;17.598;2022-12-18T05:35:09;101431.88;;;-1.85;70.07
76603;BME280;65075;48.390;17.598;2022-12-18T05:37:35;101445.94;;;-1.83;68.96
76603;BME280;65075;48.390;17.598;2022-12-18T05:40:01;101460.47;;;-2.14;70.61
76603;BME280;65075;48.390;17.598;2022-12-18T05:42:27;101468.75;;;-2.65;71.26
76603;BME280;65075;48.390;17.598;2022-12-18T05:44:52;101481.41;;;-2.67;72.19
76603;BME280;65075;48.390;17.598;2022-12-18T05:47:18;101472.94;;;-2.81;71.53
76603;BME280;65075;48.390;17.598;2022-12-18T05:49:43;101477.53;;;-2.34;71.86
76603;BME280;65075;48.390;17.598;2022-12-18T05:52:09;101473.56;;;-2.49;70.30
76603;BME280;65075;48.390;17.598;2022-12-18T05:54:34;101469.88;;;-3.47;75.35
76603;BME280;65075;48.390;17.598;2022-12-18T05:57:00;101468.50;;;-3.11;74.03
76603;BME280;65075;48.390;17.598;2022-12-18T05:59:25;101488.56;;;-3.17;75.26
76603;BME280;65075;48.390;17.598;2022-12-18T06:01:51;101486.22;;;-2.51;71.30
76603;BME280;65075;48.390;17.598;2022-12-18T06:04:17;101484.81;;;-2.07;69.07
76603;BME280;65075;48.390;17.598;2022-12-18T06:06:42;101499.31;;;-2.10;70.22
76603;BME280;65075;48.390;17.598;2022-12-18T06:09:08;101500.28;;;-2.30;69.45
76603;BME280;65075;48.390;17.598;2022-12-18T06:11:36;101497.75;;;-1.74;67.79
76603;BME280;65075;48.390;17.598;2022-12-18T06:14:03;101501.31;;;-2.12;68.71
76603;BME280;65075;48.390;17.598;2022-12-18T06:16:31;101500.56;;;-2.14;69.14
76603;BME280;65075;48.390;17.598;2022-12-18T06:18:58;101518.59;;;-2.35;69.04
76603;BME280;65075;48.390;17.598;2022-12-18T06:21:23;101519.41;;;-1.67;66.82
76603;BME280;65075;48.390;17.598;2022-12-18T06:23:49;101522.53;;;-1.82;67.10
76603;BME280;65075;48.390;17.598;2022-12-18T06:26:14;101533.78;;;-2.26;70.01
76603;BME280;65075;48.390;17.598;2022-12-18T06:28:40;101540.25;;;-1.61;67.27
76603;BME280;65075;48.390;17.598;2022-12-18T06:31:07;101525.22;;;-1.82;67.72
76603;BME280;65075;48.390;17.598;2022-12-18T06:33:34;101521.13;;;-1.66;68.03
76603;BME280;65075;48.390;17.598;2022-12-18T06:36:02;101529.00;;;-1.65;66.43
76603;BME280;65075;48.390;17.598;2022-12-18T06:38:28;101529.16;;;-1.10;64.70
76603;BME280;65075;48.390;17.598;2022-12-18T06:40:54;101524.38;;;-1.17;65.43
76603;BME280;65075;48.390;17.598;2022-12-18T06:43:20;101533.59;;;-1.38;65.53
76603;BME280;65075;48.390;17.598;2022-12-18T06:45:45;101540.56;;;-1.84;67.68
76603;BME280;65075;48.390;17.598;2022-12-18T06:48:14;101541.97;;;-1.99;68.06
76603;BME280;65075;48.390;17.598;2022-12-18T06:50:42;101531.72;;;-1.19;64.90
76603;BME280;65075;48.390;17.598;2022-12-18T06:53:08;101553.81;;;-1.92;69.03
76603;BME280;65075;48.390;17.598;2022-12-18T06:55:33;101560.31;;;-1.19;64.87
76603;BME280;65075;48.390;17.598;2022-12-18T06:57:59;101557.75;;;-0.20;62.13
76603;BME280;65075;48.390;17.598;2022-12-18T07:00:24;101552.06;;;-0.62;64.90
76603;BME280;65075;48.390;17.598;2022-12-18T07:02:50;101558.66;;;-0.83;65.41
76603;BME280;65075;48.390;17.598;2022-12-18T07:05:15;101553.22;;;0.51;62.04
76603;BME280;65075;48.390;17.598;2022-12-18T07:07:41;101571.28;;;1.52;59.51
76603;BME280;65075;48.390;17.598;2022-12-18T07:10:07;101583.59;;;3.65;51.58
76603;BME280;65075;48.390;17.598;2022-12-18T07:12:32;101591.75;;;3.87;50.57
76603;BME280;65075;48.390;17.598;2022-12-18T07:14:58;101599.63;;;4.50;48.43
76603;BME280;65075;48.390;17.598;2022-12-18T07:17:24;101605.09;;;4.12;48.55
76603;BME280;65075;48.390;17.598;2022-12-18T07:19:49;101605.47;;;4.54;48.68
76603;BME280;65075;48.390;17.598;2022-12-18T07:22:15;101591.09;;;4.99;46.65
76603;BME280;65075;48.390;17.598;2022-12-18T07:24:40;101592.59;;;5.01;45.87
76603;BME280;65075;48.390;17.598;2022-12-18T07:27:06;101597.91;;;5.97;42.96
76603;BME280;65075;48.390;17.598;2022-12-18T07:29:31;101620.78;;;6.45;42.76
76603;BME280;65075;48.390;17.598;2022-12-18T07:31:57;101626.09;;;7.23;39.82
76603;BME280;65075;48.390;17.598;2022-12-18T07:34:22;101631.69;;;8.25;38.44
76603;BME280;65075;48.390;17.598;2022-12-18T07:36:48;101633.28;;;7.37;38.11
76603;BME280;65075;48.390;17.598;2022-12-18T07:39:13;101639.81;;;7.77;39.26
76603;BME280;65075;48.390;17.598;2022-12-18T07:41:39;101648.72;;;7.99;37.21
76603;BME280;65075;48.390;17.598;2022-12-18T07:44:11;101651.13;;;4.94;42.54
76603;BME280;65075;48.390;17.598;2022-12-18T07:46:38;101647.41;;;7.26;39.29
76603;BME280;65075;48.390;17.598;2022-12-18T07:49:04;101652.44;;;6.23;40.58
76603;BME280;65075;48.390;17.598;2022-12-18T07:51:29;101644.81;;;7.74;36.52
76603;BME280;65075;48.390;17.598;2022-12-18T07:53:56;101654.22;;;7.43;37.20
76603;BME280;65075;48.390;17.598;2022-12-18T07:56:22;101646.50;;;7.19;38.96
76603;BME280;65075;48.390;17.598;2022-12-18T07:58:47;101652.13;;;7.39;37.98
76603;BME280;65075;48.390;17.598;2022-12-18T08:01:13;101654.56;;;7.06;37.63
76603;BME280;65075;48.390;17.598;2022-12-18T08:03:40;101658.22;;;8.83;35.47
76603;BME280;65075;48.390;17.598;2022-12-18T08:06:08;101650.22;;;8.55;35.05
76603;BME280;65075;48.390;17.598;2022-12-18T08:08:35;101651.44;;;9.97;33.13
76603;BME280;65075;48.390;17.598;2022-12-18T08:11:01;101662.22;;;9.33;34.45
76603;BME280;65075;48.390;17.598;2022-12-18T08:13:27;101665.69;;;10.57;32.29
76603;BME280;65075;48.390;17.598;2022-12-18T08:16:01;101668.09;;;10.40;32.89
76603;BME280;65075;48.390;17.598;2022-12-18T08:18:28;101676.69;;;10.37;33.45
76603;BME280;65075;48.390;17.598;2022-12-18T08:20:54;101675.28;;;10.72;31.42
76603;BME280;65075;48.390;17.598;2022-12-18T08:23:20;101673.59;;;10.71;31.16
76603;BME280;65075;48.390;17.598;2022-12-18T08:25:45;101681.31;;;11.86;29.11
76603;BME280;65075;48.390;17.598;2022-12-18T08:28:11;101680.34;;;8.47;36.49
76603;BME280;65075;48.390;17.598;2022-12-18T08:30:39;101686.50;;;9.67;33.41
76603;BME280;65075;48.390;17.598;2022-12-18T08:33:05;101686.16;;;7.69;36.28
76603;BME280;65075;48.390;17.598;2022-12-18T08:35:35;101685.13;;;8.04;35.90
76603;BME280;65075;48.390;17.598;2022-12-18T08:38:00;101687.44;;;10.25;33.56
76603;BME280;65075;48.390;17.598;2022-12-18T08:40:26;101689.09;;;11.09;30.71
76603;BME280;65075;48.390;17.598;2022-12-18T08:42:51;101690.78;;;11.10;30.01
76603;BME280;65075;48.390;17.598;2022-12-18T08:45:37;101677.47;;;7.25;37.75
76603;BME280;65075;48.390;17.598;2022-12-18T08:48:03;101687.91;;;10.03;33.57
76603;BME280;65075;48.390;17.598;2022-12-18T08:50:29;101696.31;;;8.77;37.31
76603;BME280;65075;48.390;17.598;2022-12-18T08:52:54;101697.00;;;10.48;33.62
76603;BME280;65075;48.390;17.598;2022-12-18T08:55:20;101686.25;;;11.22;31.53
76603;BME280;65075;48.390;17.598;2022-12-18T08:57:48;101698.38;;;8.68;35.76
76603;BME280;65075;48.390;17.598;2022-12-18T09:00:15;101705.16;;;10.99;32.45
76603;BME280;65075;48.390;17.598;2022-12-18T09:02:40;101683.09;;;11.25;31.92
76603;BME280;65075;48.390;17.598;2022-12-18T09:05:06;101704.22;;;8.58;36.35
76603;BME280;65075;48.390;17.598;2022-12-18T09:07:32;101698.41;;;8.75;35.13
76603;BME280;65075;48.390;17.598;2022-12-18T09:09:57;101703.09;;;9.72;33.87
76603;BME280;65075;48.390;17.598;2022-12-18T09:12:23;101709.78;;;9.50;33.89
76603;BME280;65075;48.390;17.598;2022-12-18T09:14:48;101710.19;;;9.73;34.00
76603;BME280;65075;48.390;17.598;2022-12-18T09:17:14;101704.28;;;10.03;33.74
76603;BME280;65075;48.390;17.598;2022-12-18T09:19:40;101696.41;;;9.55;34.27
76603;BME280;65075;48.390;17.598;2022-12-18T09:22:05;101711.94;;;10.45;32.30
76603;BME280;65075;48.390;17.598;2022-12-18T09:24:31;101713.16;;;9.13;33.50
76603;BME280;65075;48.390;17.598;2022-12-18T09:26:56;101724.91;;;9.46;32.84
76603;BME280;65075;48.390;17.598;2022-12-18T09:29:22;101721.53;;;9.18;34.04
76603;BME280;65075;48.390;17.598;2022-12-18T09:31:48;101700.59;;;9.32;33.82
76603;BME280;65075;48.390;17.598;2022-12-18T09:34:15;101714.31;;;8.78;34.48
76603;BME280;65075;48.390;17.598;2022-12-18T09:36:41;101709.69;;;11.36;31.04
76603;BME280;65075;48.390;17.598;2022-12-18T09:39:06;101719.56;;;8.73;34.55
76603;BME280;65075;48.390;17.598;2022-12-18T09:41:48;101717.16;;;8.09;36.28
76603;BME280;65075;48.390;17.598;2022-12-18T09:44:25;101718.81;;;9.18;32.54
76603;BME280;65075;48.390;17.598;2022-12-18T09:47:05;101729.91;;;9.23;35.41
76603;BME280;65075;48.390;17.598;2022-12-18T09:49:40;101713.91;;;8.81;34.36
76603;BME280;65075;48.390;17.598;2022-12-18T09:52:27;101717.63;;;7.85;35.48
76603;BME280;65075;48.390;17.598;2022-12-18T09:55:16;101725.09;;;9.58;32.87
76603;BME280;65075;48.390;17.598;2022-12-18T09:57:52;101724.41;;;10.08;32.33
76603;BME280;65075;48.390;17.598;2022-12-18T10:00:24;101722.13;;;11.32;29.83
76603;BME280;65075;48.390;17.598;2022-12-18T10:03:01;101720.41;;;10.24;30.62
76603;BME280;65075;48.390;17.598;2022-12-18T10:08:17;101713.66;;;10.77;30.20
76603;BME280;65075;48.390;17.598;2022-12-18T10:10:47;101703.47;;;9.96;31.93
76603;BME280;65075;48.390;17.598;2022-12-18T10:16:18;101695.69;;;11.26;29.69
76603;BME280;65075;48.390;17.598;2022-12-18T10:19:01;101690.25;;;9.86;32.26
76603;BME280;65075;48.390;17.598;2022-12-18T10:25:00;101686.91;;;8.73;33.28
76603;BME280;65075;48.390;17.598;2022-12-18T10:27:25;101697.72;;;10.74;31.30
76603;BME280;65075;48.390;17.598;2022-12-18T10:29:53;101695.38;;;12.74;27.44
76603;BME280;65075;48.390;17.598;2022-12-18T10:32:22;101698.47;;;11.75;29.99
76603;BME280;65075;48.390;17.598;2022-12-18T10:34:51;101701.72;;;11.10;31.38
76603;BME280;65075;48.390;17.598;2022-12-18T10:37:19;101693.19;;;11.24;30.36
76603;BME280;65075;48.390;17.598;2022-12-18T10:40:13;101689.78;;;11.29;30.24
76603;BME280;65075;48.390;17.598;2022-12-18T10:42:40;101690.47;;;11.49;30.03
76603;BME280;65075;48.390;17.598;2022-12-18T10:47:43;101688.28;;;12.19;28.34
76603;BME280;65075;48.390;17.598;2022-12-18T10:50:24;101676.19;;;11.47;29.21
76603;BME280;65075;48.390;17.598;2022-12-18T10:53:00;101679.09;;;10.14;32.53
76603;BME280;65075;48.390;17.598;2022-12-18T10:55:37;101671.69;;;10.72;31.63
76603;BME280;65075;48.390;17.598;2022-12-18T10:58:25;101675.06;;;10.29;32.71
76603;BME280;65075;48.390;17.598;2022-12-18T11:06:23;101668.88;;;11.41;29.52
76603;BME280;65075;48.390;17.598;2022-12-18T11:09:19;101665.88;;;11.49;30.26
76603;BME280;65075;48.390;17.598;2022-12-18T11:11:50;101663.50;;;11.28;31.50
76603;BME280;65075;48.390;17.598;2022-12-18T11:16:53;101670.41;;;10.37;32.42
76603;BME280;65075;48.390;17.598;2022-12-18T11:19:37;101676.31;;;11.03;30.14
76603;BME280;65075;48.390;17.598;2022-12-18T11:22:20;101655.56;;;10.19;32.15
76603;BME280;65075;48.390;17.598;2022-12-18T11:27:19;101667.25;;;11.09;29.93
76603;BME280;65075;48.390;17.598;2022-12-18T11:29:44;101666.81;;;9.78;32.62
76603;BME280;65075;48.390;17.598;2022-12-18T11:37:42;101661.50;;;9.97;30.86
76603;BME280;65075;48.390;17.598;2022-12-18T11:40:15;101659.75;;;10.66;30.53
76603;BME280;65075;48.390;17.598;2022-12-18T11:42:58;101635.91;;;9.98;30.89
76603;BME280;65075;48.390;17.598;2022-12-18T11:45:33;101647.25;;;10.83;30.52
76603;BME280;65075;48.390;17.598;2022-12-18T11:48:27;101652.06;;;10.50;31.06
76603;BME280;65075;48.390;17.598;2022-12-18T11:50:56;101659.44;;;8.68;33.92
76603;BME280;65075;48.390;17.598;2022-12-18T11:53:23;101659.06;;;8.97;34.11
76603;BME280;65075;48.390;17.598;2022-12-18T11:56:02;101656.56;;;10.38;31.50
76603;BME280;65075;48.390;17.598;2022-12-18T12:12:00;101677.53;;;9.67;32.98
76603;BME280;65075;48.390;17.598;2022-12-18T12:17:21;101674.34;;;10.47;30.99
76603;BME280;65075;48.390;17.598;2022-12-18T12:22:59;101675.56;;;11.20;31.18
76603;BME280;65075;48.390;17.598;2022-12-18T12:25:48;101680.59;;;11.23;30.18
76603;BME280;65075;48.390;17.598;2022-12-18T12:28:52;101686.72;;;10.87;30.98
76603;BME280;65075;48.390;17.598;2022-12-18T12:34:20;101674.84;;;10.31;31.05
76603;BME280;65075;48.390;17.598;2022-12-18T12:37:07;101685.22;;;8.24;34.68
76603;BME280;65075;48.390;17.598;2022-12-18T12:39:42;101688.38;;;9.73;32.57
76603;BME280;65075;48.390;17.598;2022-12-18T12:42:34;101682.66;;;10.59;30.15
76603;BME280;65075;48.390;17.598;2022-12-18T12:48:16;101682.59;;;7.69;34.66
76603;BME280;65075;48.390;17.598;2022-12-18T12:50:43;101669.88;;;10.15;30.56
76603;BME280;65075;48.390;17.598;2022-12-18T12:53:30;101680.50;;;8.05;34.33
76603;BME280;65075;48.390;17.598;2022-12-18T12:55:57;101666.56;;;9.87;31.19
76603;BME280;65075;48.390;17.598;2022-12-18T12:58:41;101673.19;;;10.30;29.82
76603;BME280;65075;48.390;17.598;2022-12-18T13:04:21;101673.25;;;9.91;31.29
76603;BME280;65075;48.390;17.598;2022-12-18T13:07:12;101680.34;;;10.62;30.32
76603;BME280;65075;48.390;17.598;2022-12-18T13:10:13;101677.78;;;6.87;35.34
76603;BME280;65075;48.390;17.598;2022-12-18T13:20:40;101694.09;;;2.61;46.13
76603;BME280;65075;48.390;17.598;2022-12-18T13:25:44;101689.44;;;2.87;47.38
76603;BME280;65075;48.390;17.598;2022-12-18T13:28:15;101678.16;;;1.42;49.99
76603;BME280;65075;48.390;17.598;2022-12-18T13:30:44;101689.72;;;2.52;48.86
76603;BME280;65075;48.390;17.598;2022-12-18T13:35:42;101690.41;;;2.70;47.01
76603;BME280;65075;48.390;17.598;2022-12-18T13:45:49;101709.66;;;3.00;44.92
76603;BME280;65075;48.390;17.598;2022-12-18T13:48:18;101687.41;;;2.89;45.42
76603;BME280;65075;48.390;17.598;2022-12-18T13:50:49;101698.91;;;1.32;51.56
76603;BME280;65075;48.390;17.598;2022-12-18T13:53:28;101700.84;;;1.65;51.25
76603;BME280;65075;48.390;17.598;2022-12-18T13:55:55;101712.81;;;1.45;50.01
76603;BME280;65075;48.390;17.598;2022-12-18T13:58:21;101708.25;;;2.55;47.61
76603;BME280;65075;48.390;17.598;2022-12-18T14:00:46;101709.63;;;2.92;48.32
76603;BME280;65075;48.390;17.598;2022-12-18T14:03:24;101717.16;;;2.06;50.40
76603;BME280;65075;48.390;17.598;2022-12-18T14:06:00;101713.88;;;1.86;50.35
76603;BME280;65075;48.390;17.598;2022-12-18T14:08:34;101714.19;;;1.83;50.00
76603;BME280;65075;48.390;17.598;2022-12-18T14:11:03;101718.81;;;1.99;50.72
76603;BME280;65075;48.390;17.598;2022-12-18T14:13:37;101717.97;;;1.98;50.65
76603;BME280;65075;48.390;17.598;2022-12-18T14:16:06;101709.41;;;2.03;50.36
76603;BME280;65075;48.390;17.598;2022-12-18T14:18:52;101728.44;;;1.24;52.42
76603;BME280;65075;48.390;17.598;2022-12-18T14:21:30;101725.28;;;1.54;53.55
76603;BME280;65075;48.390;17.598;2022-12-18T14:24:11;101731.19;;;1.84;52.55
76603;BME280;65075;48.390;17.598;2022-12-18T14:26:37;101732.66;;;2.12;49.62
76603;BME280;65075;48.390;17.598;2022-12-18T14:32:06;101738.16;;;2.36;49.42
76603;BME280;65075;48.390;17.598;2022-12-18T14:34:32;101736.00;;;2.48;50.23
76603;BME280;65075;48.390;17.598;2022-12-18T14:36:58;101752.91;;;2.16;50.73
76603;BME280;65075;48.390;17.598;2022-12-18T14:39:23;101761.25;;;2.05;50.88
76603;BME280;65075;48.390;17.598;2022-12-18T14:41:51;101760.28;;;2.14;48.66
76603;BME280;65075;48.390;17.598;2022-12-18T14:44:18;101766.19;;;1.84;50.63